Time;durP1;ratioP1;P1;durP2;ratioP2;P2;SDS_P1;SDS_P2;PMS_P1;PMS_P2;Temp;Humidity;BMP_temperature;BMP_pressure;BME280_temperature;BME280_humidity;BME280_pressure;Samples;Min_cycle;Max_cycle;Signal;HPM_P1;HPM_P2
2024/04/10 00:02:19;;;;;;;18.60;9.10;;;;;;;;;;5416128;26;20225;-76
2024/04/10 00:04:49;;;;;;;14.53;9.00;;;;;;;;;;5416231;26;20284;-78
2024/04/10 00:07:15;;;;;;;17.83;10.20;;;;;;;;;;5417172;26;20264;-78
2024/04/10 00:09:44;;;;;;;24.17;10.60;;;;;;;;;;5416070;26;20581;-77
2024/04/10 00:12:11;;;;;;;17.10;10.03;;;;;;;;;;5416099;26;20324;-77
2024/04/10 00:14:40;;;;;;;16.57;8.80;;;;;;;;;;5388618;26;20250;-77
2024/04/10 00:17:08;;;;;;;13.37;8.17;;;;;;;;;;5380347;26;20257;-77
2024/04/10 00:19:37;;;;;;;15.07;8.23;;;;;;;;;;5380508;26;20284;-78
2024/04/10 00:22:03;;;;;;;12.97;8.07;;;;;;;;;;5380825;26;20227;-77
2024/04/10 00:24:32;;;;;;;16.70;8.10;;;;;;;;;;5380508;26;20226;-78
2024/04/10 00:26:59;;;;;;;16.03;8.33;;;;;;;;;;5381447;26;20230;-78
2024/04/10 00:29:27;;;;;;;14.43;7.93;;;;;;;;;;5380365;26;20289;-77
2024/04/10 00:31:54;;;;;;;16.57;8.07;;;;;;;;;;5379870;26;20226;-78
2024/04/10 00:34:26;;;;;;;16.37;8.67;;;;;;;;;;5380695;26;20280;-78
2024/04/10 00:36:52;;;;;;;14.50;7.97;;;;;;;;;;5380312;26;20305;-77
2024/04/10 00:39:21;;;;;;;17.33;8.30;;;;;;;;;;5380400;26;20629;-78
2024/04/10 00:41:48;;;;;;;13.73;7.90;;;;;;;;;;5380734;26;20277;-77
2024/04/10 00:44:18;;;;;;;13.03;8.20;;;;;;;;;;5380579;26;20235;-77
2024/04/10 00:46:46;;;;;;;16.47;7.93;;;;;;;;;;5379831;26;20227;-78
2024/04/10 00:49:15;;;;;;;14.10;8.23;;;;;;;;;;5380092;26;20234;-77
2024/04/10 00:51:44;;;;;;;14.83;9.27;;;;;;;;;;5380333;26;20227;-77
2024/04/10 00:54:14;;;;;;;17.70;10.10;;;;;;;;;;5380467;26;20234;-78
2024/04/10 00:56:40;;;;;;;17.13;9.77;;;;;;;;;;5379780;26;20270;-77
2024/04/10 00:59:11;;;;;;;16.87;10.83;;;;;;;;;;5379934;26;20246;-77
2024/04/10 01:01:37;;;;;;;17.73;10.73;;;;;;;;;;5380234;26;20230;-78
2024/04/10 01:04:06;;;;;;;19.03;10.83;;;;;;;;;;5379794;26;20280;-77
2024/04/10 01:06:33;;;;;;;17.07;11.47;;;;;;;;;;5380496;26;20277;-77
2024/04/10 01:09:05;;;;;;;17.87;11.47;;;;;;;;;;5380419;26;20231;-77
2024/04/10 01:11:31;;;;;;;20.23;12.17;;;;;;;;;;5380108;26;20234;-78
2024/04/10 01:14:00;;;;;;;17.43;11.93;;;;;;;;;;5379216;26;20242;-78
2024/04/10 01:16:26;;;;;;;16.87;12.57;;;;;;;;;;5400331;26;20257;-76
2024/04/10 01:18:55;;;;;;;17.00;12.07;;;;;;;;;;5380082;26;20236;-77
2024/04/10 01:21:22;;;;;;;18.30;11.50;;;;;;;;;;5378428;26;20226;-77
2024/04/10 01:23:53;;;;;;;18.10;11.23;;;;;;;;;;5380125;26;20235;-78
2024/04/10 01:26:19;;;;;;;17.03;11.00;;;;;;;;;;5380206;26;20277;-77
2024/04/10 01:28:49;;;;;;;16.53;10.30;;;;;;;;;;5379521;26;20230;-78
2024/04/10 01:31:15;;;;;;;16.80;10.00;;;;;;;;;;5379659;26;20761;-76
2024/04/10 01:33:44;;;;;;;17.50;10.40;;;;;;;;;;5379843;26;20758;-77
2024/04/10 01:36:10;;;;;;;21.90;10.20;;;;;;;;;;5379573;26;20222;-77
2024/04/10 01:38:40;;;;;;;15.63;8.43;;;;;;;;;;5379861;26;20230;-77
2024/04/10 01:41:09;;;;;;;16.83;7.27;;;;;;;;;;5379700;26;20226;-77
2024/04/10 01:43:38;;;;;;;15.00;7.07;;;;;;;;;;5379602;26;20230;-77
2024/04/10 01:46:04;;;;;;;12.23;7.00;;;;;;;;;;5379483;26;20230;-78
2024/04/10 01:48:33;;;;;;;14.20;6.70;;;;;;;;;;5379635;26;20753;-77
2024/04/10 01:51:00;;;;;;;15.00;6.50;;;;;;;;;;5379853;26;20269;-78
2024/04/10 01:53:28;;;;;;;9.27;6.20;;;;;;;;;;5379449;26;20230;-77
2024/04/10 01:55:55;;;;;;;13.10;5.87;;;;;;;;;;5379552;26;20229;-78
2024/04/10 01:58:26;;;;;;;11.63;5.97;;;;;;;;;;5379455;26;20281;-77
2024/04/10 02:00:52;;;;;;;15.37;6.17;;;;;;;;;;5378989;26;20226;-79
2024/04/10 02:03:21;;;;;;;14.33;5.67;;;;;;;;;;5379285;26;20336;-77
2024/04/10 02:05:47;;;;;;;10.83;5.63;;;;;;;;;;5379295;26;20226;-76
2024/04/10 02:08:16;;;;;;;15.50;6.07;;;;;;;;;;5379225;26;20230;-76
2024/04/10 02:10:43;;;;;;;12.40;5.47;;;;;;;;;;5379076;26;20624;-78
2024/04/10 02:13:12;;;;;;;11.03;5.10;;;;;;;;;;5383935;26;20780;-78
2024/04/10 02:15:40;;;;;;;9.07;5.23;;;;;;;;;;5414480;26;20225;-78
2024/04/10 02:18:09;;;;;;;10.17;5.40;;;;;;;;;;5414171;26;20233;-77
2024/04/10 02:20:35;;;;;;;10.23;5.67;;;;;;;;;;5414708;26;20749;-78
2024/04/10 02:23:04;;;;;;;14.30;5.97;;;;;;;;;;5414571;26;20275;-79
2024/04/10 02:25:33;;;;;;;12.40;4.93;;;;;;;;;;5414130;26;20560;-77
2024/04/10 02:28:01;;;;;;;11.13;5.50;;;;;;;;;;5414241;26;20284;-77
2024/04/10 02:30:28;;;;;;;9.87;4.87;;;;;;;;;;5414229;26;20309;-78
2024/04/10 02:32:59;;;;;;;11.20;4.90;;;;;;;;;;5417210;26;20245;-78
2024/04/10 02:35:25;;;;;;;11.13;5.60;;;;;;;;;;5418024;26;20268;-77
2024/04/10 02:37:54;;;;;;;12.60;5.63;;;;;;;;;;5417557;26;20233;-78
2024/04/10 02:40:21;;;;;;;11.10;5.70;;;;;;;;;;5418356;26;20325;-77
2024/04/10 02:42:57;;;;;;;12.77;5.97;;;;;;;;;;5416969;26;20893;-78
2024/04/10 02:45:24;;;;;;;13.43;5.23;;;;;;;;;;5417617;26;20272;-77
2024/04/10 02:47:52;;;;;;;10.57;4.90;;;;;;;;;;5417783;26;20718;-76
2024/04/10 02:50:21;;;;;;;15.50;5.33;;;;;;;;;;5417883;26;20276;-77
2024/04/10 02:52:50;;;;;;;9.67;4.97;;;;;;;;;;5417276;26;20233;-77
2024/04/10 02:55:16;;;;;;;13.40;5.53;;;;;;;;;;5417335;26;20225;-79
2024/04/10 02:57:45;;;;;;;9.57;4.80;;;;;;;;;;5417544;26;20744;-78
2024/04/10 03:00:12;;;;;;;12.53;4.87;;;;;;;;;;5417275;26;20267;-78
2024/04/10 03:02:41;;;;;;;11.97;4.93;;;;;;;;;;5417047;26;20244;-77
2024/04/10 03:05:07;;;;;;;10.90;4.50;;;;;;;;;;5417416;26;20323;-77
2024/04/10 03:07:39;;;;;;;12.13;4.70;;;;;;;;;;5417064;26;20239;-76
2024/04/10 03:10:06;;;;;;;9.17;4.50;;;;;;;;;;5416576;26;20583;-77
2024/04/10 03:12:37;;;;;;;9.57;3.83;;;;;;;;;;5416913;26;20745;-78
2024/04/10 03:15:04;;;;;;;13.27;4.40;;;;;;;;;;5417150;26;20229;-78
2024/04/10 03:17:33;;;;;;;12.17;4.60;;;;;;;;;;5417543;26;20291;-77
2024/04/10 03:20:02;;;;;;;8.70;4.40;;;;;;;;;;5417262;26;20229;-77
2024/04/10 03:22:28;;;;;;;11.17;4.77;;;;;;;;;;5416818;26;20309;-78
2024/04/10 03:25:00;;;;;;;13.37;4.63;;;;;;;;;;5416826;26;20697;-78
2024/04/10 03:27:26;;;;;;;9.63;4.70;;;;;;;;;;5417175;26;20586;-77
2024/04/10 03:29:55;;;;;;;14.60;5.37;;;;;;;;;;5416747;26;20327;-78
2024/04/10 03:32:21;;;;;;;14.00;4.90;;;;;;;;;;5416727;26;20225;-78
2024/04/10 03:34:50;;;;;;;13.17;4.87;;;;;;;;;;5416983;26;20229;-77
2024/04/10 03:37:17;;;;;;;10.60;5.37;;;;;;;;;;5416864;26;20229;-76
2024/04/10 03:39:45;;;;;;;12.43;4.80;;;;;;;;;;5416455;26;20290;-79
2024/04/10 03:42:14;;;;;;;12.30;5.40;;;;;;;;;;5417178;26;20276;-79
2024/04/10 03:44:43;;;;;;;12.90;5.47;;;;;;;;;;5416034;26;20569;-78
2024/04/10 03:47:12;;;;;;;12.03;5.50;;;;;;;;;;5416616;26;20224;-78
2024/04/10 03:49:42;;;;;;;12.30;5.83;;;;;;;;;;5416655;26;20350;-79
2024/04/10 03:52:11;;;;;;;13.97;6.60;;;;;;;;;;5416425;26;20213;-78
2024/04/10 03:54:37;;;;;;;15.70;6.90;;;;;;;;;;5416057;26;20568;-78
2024/04/10 03:57:06;;;;;;;18.00;7.80;;;;;;;;;;5416896;26;20314;-77
2024/04/10 03:59:35;;;;;;;14.33;7.10;;;;;;;;;;5416864;26;20275;-77
2024/04/10 04:02:04;;;;;;;11.23;7.13;;;;;;;;;;5417048;26;21019;-77
2024/04/10 04:04:30;;;;;;;17.37;7.50;;;;;;;;;;5416839;26;20268;-77
2024/04/10 04:06:59;;;;;;;13.37;7.50;;;;;;;;;;5416278;26;20340;-77
2024/04/10 04:09:25;;;;;;;15.23;7.30;;;;;;;;;;5416194;26;20222;-78
2024/04/10 04:11:54;;;;;;;14.77;6.70;;;;;;;;;;5416769;26;20293;-77
2024/04/10 04:14:23;;;;;;;13.83;6.90;;;;;;;;;;5416326;26;20235;-78
2024/04/10 04:16:51;;;;;;;14.27;5.97;;;;;;;;;;5416518;26;20275;-79
2024/04/10 04:19:20;;;;;;;12.90;6.10;;;;;;;;;;5416051;26;20616;-79
2024/04/10 04:21:46;;;;;;;16.37;6.57;;;;;;;;;;5416494;26;20269;-79
2024/04/10 04:24:15;;;;;;;12.67;6.13;;;;;;;;;;5415971;26;20292;-79
2024/04/10 04:26:42;;;;;;;14.57;6.17;;;;;;;;;;5415788;26;20228;-79
2024/04/10 04:29:11;;;;;;;12.03;5.57;;;;;;;;;;5416173;26;20281;-79
2024/04/10 04:31:37;;;;;;;9.30;5.50;;;;;;;;;;5415882;26;20333;-79
2024/04/10 04:34:12;;;;;;;10.40;5.43;;;;;;;;;;5416161;26;20248;-79
2024/04/10 04:36:39;;;;;;;13.10;5.63;;;;;;;;;;5416178;26;20235;-79
2024/04/10 04:39:09;;;;;;;10.83;5.20;;;;;;;;;;5415773;26;20751;-78
2024/04/10 04:41:35;;;;;;;10.57;5.60;;;;;;;;;;5415882;26;20297;-78
2024/04/10 04:44:04;;;;;;;10.47;6.23;;;;;;;;;;5415396;26;20274;-78
2024/04/10 04:46:30;;;;;;;12.73;5.90;;;;;;;;;;5415976;26;20268;-77
2024/04/10 04:49:00;;;;;;;10.80;5.83;;;;;;;;;;5415877;26;20235;-78
2024/04/10 04:51:28;;;;;;;11.00;6.17;;;;;;;;;;5414857;26;20563;-78
2024/04/10 04:53:57;;;;;;;14.87;5.83;;;;;;;;;;5415476;26;20278;-79
2024/04/10 04:56:23;;;;;;;10.87;5.73;;;;;;;;;;5414479;26;20227;-79
2024/04/10 04:58:52;;;;;;;13.30;6.10;;;;;;;;;;5415863;26;20720;-78
2024/04/10 05:01:19;;;;;;;12.53;5.70;;;;;;;;;;5415796;26;20266;-78
2024/04/10 05:06:35;;;;;;;10.00;5.53;;;;;;;;;;5417512;26;20757;-75
2024/04/10 05:09:09;;;;;;;11.70;5.60;;;;;;;;;;5415906;26;20222;-79
2024/04/10 05:11:38;;;;;;;11.87;5.53;;;;;;;;;;5415815;26;20221;-78
2024/04/10 05:14:05;;;;;;;10.90;5.50;;;;;;;;;;5396589;26;20727;-79
2024/04/10 05:16:34;;;;;;;9.53;5.27;;;;;;;;;;5379980;26;20281;-79
2024/04/10 05:19:04;;;;;;;11.17;5.43;;;;;;;;;;5380243;26;20271;-79
2024/04/10 05:21:36;;;;;;;11.10;5.27;;;;;;;;;;5379746;26;21057;-79
2024/04/10 05:24:02;;;;;;;9.20;5.17;;;;;;;;;;5379354;26;20232;-78
2024/04/10 05:26:31;;;;;;;10.77;5.10;;;;;;;;;;5379950;26;20284;-77
2024/04/10 05:28:58;;;;;;;11.90;5.50;;;;;;;;;;5379683;26;20278;-78
2024/04/10 05:31:27;;;;;;;11.73;5.13;;;;;;;;;;5379978;26;20275;-77
2024/04/10 05:33:53;;;;;;;10.73;5.23;;;;;;;;;;5380107;26;20743;-79
2024/04/10 05:36:22;;;;;;;8.67;5.00;;;;;;;;;;5379486;26;20292;-79
2024/04/10 05:38:52;;;;;;;9.83;4.77;;;;;;;;;;5405099;26;20246;-79
2024/04/10 05:41:22;;;;;;;12.47;5.50;;;;;;;;;;5379557;26;20271;-76
2024/04/10 05:43:48;;;;;;;9.67;5.57;;;;;;;;;;5409721;26;20248;-78
2024/04/10 05:46:17;;;;;;;14.67;5.70;;;;;;;;;;5400408;26;20295;-78
2024/04/10 05:48:43;;;;;;;11.77;5.70;;;;;;;;;;5379389;26;20775;-78
2024/04/10 05:51:12;;;;;;;13.27;5.70;;;;;;;;;;5379550;26;20232;-77
2024/04/10 05:53:38;;;;;;;16.87;5.63;;;;;;;;;;5379946;26;20229;-78
2024/04/10 05:56:10;;;;;;;14.27;6.47;;;;;;;;;;5379426;26;20311;-79
2024/04/10 05:58:36;;;;;;;10.77;5.40;;;;;;;;;;5379705;26;20228;-78
2024/04/10 06:01:09;;;;;;;12.40;5.80;;;;;;;;;;5379093;26;20234;-78
2024/04/10 06:03:36;;;;;;;15.73;8.20;;;;;;;;;;5378896;26;20229;-78
2024/04/10 06:06:12;;;;;;;18.00;12.37;;;;;;;;;;5379533;26;20283;-78
2024/04/10 06:08:38;;;;;;;21.97;13.50;;;;;;;;;;5383181;26;20229;-78
2024/04/10 06:11:10;;;;;;;18.03;11.43;;;;;;;;;;5382814;26;20237;-77
2024/04/10 06:13:36;;;;;;;14.83;7.70;;;;;;;;;;5394849;26;20270;-79
2024/04/10 06:16:06;;;;;;;10.33;5.17;;;;;;;;;;5417559;26;20236;-79
2024/04/10 06:18:32;;;;;;;11.57;4.40;;;;;;;;;;5418384;26;20225;-79
2024/04/10 06:21:01;;;;;;;9.43;4.77;;;;;;;;;;5417556;26;20236;-78
2024/04/10 06:23:28;;;;;;;8.90;4.33;;;;;;;;;;5418200;26;20228;-79
2024/04/10 06:25:57;;;;;;;9.67;3.73;;;;;;;;;;5417470;26;20555;-79
2024/04/10 06:28:26;;;;;;;6.63;3.80;;;;;;;;;;5411815;26;20233;-79
2024/04/10 06:31:02;;;;;;;13.97;9.90;;;;;;;;;;5417723;26;20283;-79
2024/04/10 06:33:28;;;;;;;9.07;5.40;;;;;;;;;;5416605;26;20235;-78
2024/04/10 06:35:57;;;;;;;8.90;5.00;;;;;;;;;;5417313;26;20280;-80
2024/04/10 06:38:23;;;;;;;18.07;12.43;;;;;;;;;;5388814;26;20233;-79
2024/04/10 06:40:56;;;;;;;10.80;4.17;;;;;;;;;;5416968;26;20292;-79
2024/04/10 06:43:22;;;;;;;10.83;3.40;;;;;;;;;;5417710;26;21148;-79
2024/04/10 06:46:00;;;;;;;10.00;3.27;;;;;;;;;;5416458;26;20737;-78
2024/04/10 06:48:27;;;;;;;12.33;3.40;;;;;;;;;;5416915;26;20276;-79
2024/04/10 06:50:58;;;;;;;8.07;3.00;;;;;;;;;;5417485;26;20271;-79
2024/04/10 06:53:24;;;;;;;8.63;3.40;;;;;;;;;;5417182;26;20264;-78
2024/04/10 06:55:57;;;;;;;13.20;7.17;;;;;;;;;;5417455;26;20275;-78
2024/04/10 06:58:24;;;;;;;24.77;17.23;;;;;;;;;;5417517;26;20736;-77
2024/04/10 07:01:02;;;;;;;15.70;11.10;;;;;;;;;;5417325;26;20237;-78
2024/04/10 07:03:29;;;;;;;9.27;4.53;;;;;;;;;;5417218;26;20233;-79
2024/04/10 07:06:07;;;;;;;9.70;3.77;;;;;;;;;;5417545;26;20637;-82
2024/04/10 07:08:35;;;;;;;21.97;12.03;;;;;;;;;;5417141;26;20221;-80
2024/04/10 07:11:04;;;;;;;11.27;6.17;;;;;;;;;;5417339;26;20226;-81
2024/04/10 07:13:30;;;;;;;14.00;3.67;;;;;;;;;;5417476;26;20292;-81
2024/04/10 07:16:03;;;;;;;12.17;5.20;;;;;;;;;;5416784;26;20337;-80
2024/04/10 07:18:29;;;;;;;8.70;3.50;;;;;;;;;;5415627;26;20229;-81
2024/04/10 07:21:02;;;;;;;7.73;3.63;;;;;;;;;;5417228;26;20238;-81
2024/04/10 07:23:28;;;;;;;13.13;4.17;;;;;;;;;;5417327;26;20259;-80
2024/04/10 07:25:58;;;;;;;9.30;3.43;;;;;;;;;;5417162;26;20241;-82
2024/04/10 07:28:24;;;;;;;8.40;3.13;;;;;;;;;;5417384;26;20225;-82
2024/04/10 07:30:53;;;;;;;10.90;3.77;;;;;;;;;;5417021;26;20271;-82
2024/04/10 07:33:23;;;;;;;11.33;3.03;;;;;;;;;;5417113;26;20233;-82
2024/04/10 07:35:52;;;;;;;12.93;3.73;;;;;;;;;;5417054;26;20272;-82
2024/04/10 07:38:18;;;;;;;12.70;3.70;;;;;;;;;;5417732;26;20226;-82
2024/04/10 07:40:55;;;;;;;11.53;3.43;;;;;;;;;;5416873;26;20285;-82
2024/04/10 07:43:21;;;;;;;12.33;3.07;;;;;;;;;;5416925;26;20272;-82
2024/04/10 07:45:50;;;;;;;9.23;2.77;;;;;;;;;;5417038;26;20301;-84
2024/04/10 07:48:16;;;;;;;12.43;2.87;;;;;;;;;;5417366;26;20256;-82
2024/04/10 07:50:48;;;;;;;14.03;3.10;;;;;;;;;;5416687;26;20566;-83
2024/04/10 07:53:14;;;;;;;10.67;2.57;;;;;;;;;;5416856;26;20225;-82
2024/04/10 07:55:43;;;;;;;9.33;2.63;;;;;;;;;;5417231;26;20283;-82
2024/04/10 07:58:12;;;;;;;10.93;2.40;;;;;;;;;;5417004;26;20248;-83
2024/04/10 08:00:39;;;;;;;11.47;2.43;;;;;;;;;;5416189;26;20225;-82
2024/04/10 08:03:08;;;;;;;8.37;2.40;;;;;;;;;;5416930;26;20294;-82
2024/04/10 08:05:35;;;;;;;10.57;2.60;;;;;;;;;;5416481;26;20268;-82
2024/04/10 08:08:06;;;;;;;8.43;2.60;;;;;;;;;;5416937;26;20830;-83
2024/04/10 08:10:32;;;;;;;11.63;2.63;;;;;;;;;;5416473;26;20302;-82
2024/04/10 08:13:03;;;;;;;12.30;2.63;;;;;;;;;;5416826;26;20257;-83
2024/04/10 08:15:32;;;;;;;9.97;3.23;;;;;;;;;;5415650;26;20225;-82
2024/04/10 08:18:01;;;;;;;8.60;2.70;;;;;;;;;;5416766;26;20260;-82
2024/04/10 08:20:27;;;;;;;11.57;2.80;;;;;;;;;;5416429;26;20260;-81
2024/04/10 08:22:56;;;;;;;12.70;3.40;;;;;;;;;;5416590;26;20707;-83
2024/04/10 08:25:25;;;;;;;9.93;2.87;;;;;;;;;;5417020;26;20264;-84
2024/04/10 08:27:54;;;;;;;11.03;3.07;;;;;;;;;;5416316;26;20841;-83
2024/04/10 08:30:20;;;;;;;11.13;3.30;;;;;;;;;;5415758;26;20225;-83
2024/04/10 08:32:50;;;;;;;9.27;2.63;;;;;;;;;;5416311;26;20237;-84
2024/04/10 08:35:16;;;;;;;11.33;2.67;;;;;;;;;;5416234;26;20276;-83
2024/04/10 08:37:46;;;;;;;11.67;3.00;;;;;;;;;;5416964;26;20233;-82
2024/04/10 08:40:12;;;;;;;9.37;2.83;;;;;;;;;;5416902;26;20221;-84
2024/04/10 08:42:44;;;;;;;14.27;2.77;;;;;;;;;;5417283;26;20694;-86
2024/04/10 08:45:13;;;;;;;9.53;2.60;;;;;;;;;;5415974;26;20225;-84
2024/04/10 08:47:42;;;;;;;10.50;2.40;;;;;;;;;;5415976;26;20586;-84
2024/04/10 08:50:08;;;;;;;9.80;2.30;;;;;;;;;;5416480;26;20225;-84
2024/04/10 08:52:38;;;;;;;15.83;3.20;;;;;;;;;;5416635;26;20338;-84
2024/04/10 08:55:06;;;;;;;10.90;2.73;;;;;;;;;;5416937;26;20225;-84
2024/04/10 08:57:35;;;;;;;11.40;2.83;;;;;;;;;;5415502;26;20709;-84
2024/04/10 09:00:04;;;;;;;15.63;3.00;;;;;;;;;;5416366;26;20225;-85
2024/04/10 09:02:33;;;;;;;12.00;2.87;;;;;;;;;;5417005;26;20234;-86
2024/04/10 09:04:59;;;;;;;11.63;2.70;;;;;;;;;;5416154;26;20225;-85
2024/04/10 09:07:28;;;;;;;12.93;1.90;;;;;;;;;;5416682;26;20304;-85
2024/04/10 09:09:55;;;;;;;12.20;2.80;;;;;;;;;;5416093;26;20451;-84
2024/04/10 09:12:27;;;;;;;11.40;2.00;;;;;;;;;;5415776;26;20233;-85
2024/04/10 09:15:09;;;;;;;7.93;2.33;;;;;;;;;;5416263;26;20807;-84
2024/04/10 09:17:39;;;;;;;13.10;2.40;;;;;;;;;;5416736;26;20283;-86
2024/04/10 09:20:11;;;;;;;10.93;2.10;;;;;;;;;;5415904;26;20976;-85
2024/04/10 09:22:40;;;;;;;13.73;3.27;;;;;;;;;;5416385;26;20283;-86
2024/04/10 09:25:10;;;;;;;12.97;2.70;;;;;;;;;;5416379;26;20221;-85
2024/04/10 09:27:39;;;;;;;9.10;2.67;;;;;;;;;;5415788;26;20338;-84
2024/04/10 09:30:09;;;;;;;13.20;2.50;;;;;;;;;;5415602;26;20566;-85
2024/04/10 09:32:39;;;;;;;14.57;2.70;;;;;;;;;;5416438;26;20693;-85
2024/04/10 09:35:06;;;;;;;12.20;2.40;;;;;;;;;;5416507;26;20229;-85
2024/04/10 09:37:37;;;;;;;11.70;2.47;;;;;;;;;;5416317;26;20229;-85
2024/04/10 09:40:05;;;;;;;10.23;2.17;;;;;;;;;;5416595;26;20221;-85
2024/04/10 09:42:36;;;;;;;9.40;2.37;;;;;;;;;;5414647;26;20289;-85
2024/04/10 09:45:06;;;;;;;9.23;2.77;;;;;;;;;;5416414;26;20717;-85
2024/04/10 09:47:39;;;;;;;11.97;2.30;;;;;;;;;;5416269;26;20229;-85
2024/04/10 09:50:08;;;;;;;10.00;2.50;;;;;;;;;;5415047;26;20220;-85
2024/04/10 09:52:38;;;;;;;8.60;2.20;;;;;;;;;;5415936;26;20229;-86
2024/04/10 09:55:05;;;;;;;14.67;2.70;;;;;;;;;;5415852;26;20225;-85
2024/04/10 09:57:35;;;;;;;10.47;2.27;;;;;;;;;;5415338;26;20241;-85
2024/04/10 10:00:02;;;;;;;11.10;1.83;;;;;;;;;;5415605;26;20313;-85
2024/04/10 10:02:31;;;;;;;11.23;2.20;;;;;;;;;;5416201;26;20338;-85
2024/04/10 10:04:59;;;;;;;8.32;2.30;;;;;;;;;;5415999;26;20706;-86
2024/04/10 10:07:29;;;;;;;8.55;2.45;;;;;;;;;;5415801;26;20276;-85
2024/04/10 10:10:05;;;;;;;11.38;2.28;;;;;;;;;;5415029;26;20264;-85
2024/04/10 10:12:34;;;;;;;13.82;3.75;;;;;;;;;;5415646;26;20329;-86
2024/04/10 10:15:06;;;;;;;8.82;2.15;;;;;;;;;;5382466;26;20766;-86
2024/04/10 10:17:35;;;;;;;9.30;1.90;;;;;;;;;;5380337;26;20285;-85
2024/04/10 10:20:04;;;;;;;9.23;1.75;;;;;;;;;;5379917;26;20226;-85
2024/04/10 10:22:33;;;;;;;14.98;2.58;;;;;;;;;;5379469;26;20235;-85
2024/04/10 10:25:00;;;;;;;8.60;1.70;;;;;;;;;;5379292;26;20226;-84
2024/04/10 10:27:29;;;;;;;14.63;2.45;;;;;;;;;;5380130;26;20347;-85
2024/04/10 10:30:06;;;;;;;9.32;1.73;;;;;;;;;;5380387;26;21278;-85
2024/04/10 11:03:17;;;;;;;8.52;1.85;;;;;;;;;;5379267;26;20625;-87
2024/04/10 11:05:44;;;;;;;7.75;1.90;;;;;;;;;;5383957;26;20339;-87
2024/04/10 11:08:13;;;;;;;7.13;1.35;;;;;;;;;;5383246;26;20226;-86
2024/04/10 11:10:39;;;;;;;7.28;1.48;;;;;;;;;;5383624;26;20226;-86
2024/04/10 11:13:09;;;;;;;6.93;1.38;;;;;;;;;;5383464;26;20234;-87
2024/04/10 11:15:39;;;;;;;8.13;1.58;;;;;;;;;;5383585;26;20272;-88
2024/04/10 11:18:08;;;;;;;10.65;1.60;;;;;;;;;;5383059;26;20293;-86
2024/04/10 11:20:37;;;;;;;8.65;1.80;;;;;;;;;;5383170;26;20226;-87
2024/04/10 11:23:07;;;;;;;5.60;1.73;;;;;;;;;;5383337;26;20289;-87
2024/04/10 11:25:34;;;;;;;5.90;1.38;;;;;;;;;;5383549;26;20327;-87
2024/04/10 11:28:03;;;;;;;4.90;1.60;;;;;;;;;;5383749;26;20557;-86
2024/04/10 11:30:30;;;;;;;7.00;1.40;;;;;;;;;;5382887;26;20230;-88
2024/04/10 11:33:00;;;;;;;9.38;1.60;;;;;;;;;;5383171;26;20238;-87
2024/04/10 11:35:27;;;;;;;5.72;1.23;;;;;;;;;;5382746;26;20289;-86
2024/04/10 11:37:59;;;;;;;6.00;1.80;;;;;;;;;;5383336;26;20277;-86
2024/04/10 11:40:26;;;;;;;8.60;2.35;;;;;;;;;;5383919;26;20226;-86
2024/04/10 11:42:55;;;;;;;7.50;2.20;;;;;;;;;;5383118;26;20340;-87
2024/04/10 11:45:21;;;;;;;8.77;2.03;;;;;;;;;;5382756;26;20265;-88
2024/04/10 11:47:52;;;;;;;9.05;1.75;;;;;;;;;;5383370;26;20817;-87
2024/04/10 11:50:20;;;;;;;8.38;2.20;;;;;;;;;;5383552;26;20252;-87
2024/04/10 11:52:50;;;;;;;11.68;2.25;;;;;;;;;;5381553;26;20275;-87
2024/04/10 11:55:18;;;;;;;11.98;2.80;;;;;;;;;;5383102;26;20254;-87
2024/04/10 11:57:48;;;;;;;7.13;1.88;;;;;;;;;;5382954;26;20230;-88
2024/04/10 12:00:14;;;;;;;10.80;2.05;;;;;;;;;;5382893;26;20230;-87
2024/04/10 12:02:43;;;;;;;8.88;1.70;;;;;;;;;;5382881;26;20254;-87
2024/04/10 12:05:09;;;;;;;8.25;1.50;;;;;;;;;;5382053;26;20261;-86
2024/04/10 12:07:41;;;;;;;4.57;1.58;;;;;;;;;;5383237;26;20273;-87
2024/04/10 12:10:08;;;;;;;5.05;1.33;;;;;;;;;;5383145;26;20242;-87
2024/04/10 12:12:40;;;;;;;5.30;1.50;;;;;;;;;;5382812;26;20293;-88
2024/04/10 12:15:06;;;;;;;6.47;1.30;;;;;;;;;;5416433;26;20263;-86
2024/04/10 12:17:36;;;;;;;6.03;1.80;;;;;;;;;;5418541;26;20279;-86
2024/04/10 12:20:03;;;;;;;6.18;1.20;;;;;;;;;;5418325;26;20334;-86
2024/04/10 12:22:32;;;;;;;5.35;1.83;;;;;;;;;;5417600;26;20714;-86
2024/04/10 12:24:58;;;;;;;6.47;1.50;;;;;;;;;;5417585;26;20702;-87
2024/04/10 12:27:27;;;;;;;6.55;1.73;;;;;;;;;;5415843;26;20241;-86
2024/04/10 12:29:56;;;;;;;6.80;1.60;;;;;;;;;;5416964;26;20225;-86
2024/04/10 12:32:26;;;;;;;7.53;1.33;;;;;;;;;;5418072;26;20249;-85
2024/04/10 12:34:58;;;;;;;6.68;1.58;;;;;;;;;;5416084;26;20233;-86
2024/04/10 12:40:12;;;;;;;10.73;2.03;;;;;;;;;;5421105;26;20338;-84
2024/04/10 12:42:42;;;;;;;7.40;1.70;;;;;;;;;;5414847;26;20241;-84
2024/04/10 12:45:15;;;;;;;8.60;1.83;;;;;;;;;;5414676;26;20279;-84
2024/04/10 12:47:41;;;;;;;8.02;1.52;;;;;;;;;;5411654;26;20268;-84
2024/04/10 12:50:10;;;;;;;7.22;2.10;;;;;;;;;;5409707;26;20279;-85
2024/04/10 12:52:37;;;;;;;8.70;1.70;;;;;;;;;;5415509;26;20284;-83
2024/04/10 12:55:07;;;;;;;9.60;1.83;;;;;;;;;;5414826;26;20241;-81
2024/04/10 12:57:37;;;;;;;8.98;2.05;;;;;;;;;;5414412;26;20298;-81
2024/04/10 13:00:04;;;;;;;8.55;1.83;;;;;;;;;;5414703;26;20592;-82
2024/04/10 13:02:36;;;;;;;5.90;1.58;;;;;;;;;;5411625;26;20349;-78
2024/04/10 13:05:03;;;;;;;7.30;1.70;;;;;;;;;;5412313;26;20245;-82
2024/04/10 13:07:32;;;;;;;9.45;1.50;;;;;;;;;;5414188;26;20406;-81
2024/04/10 13:09:59;;;;;;;6.85;1.92;;;;;;;;;;5412395;26;20233;-80
2024/04/10 13:12:28;;;;;;;7.10;1.75;;;;;;;;;;5414202;26;20245;-81
2024/04/10 13:14:55;;;;;;;7.63;1.50;;;;;;;;;;5412373;26;20279;-83
2024/04/10 13:17:24;;;;;;;7.45;1.30;;;;;;;;;;5413286;26;20241;-83
2024/04/10 13:19:53;;;;;;;7.70;1.65;;;;;;;;;;5414020;26;20237;-83
2024/04/10 13:22:24;;;;;;;7.20;1.63;;;;;;;;;;5414728;26;20237;-82
2024/04/10 13:24:51;;;;;;;7.05;1.20;;;;;;;;;;5414645;26;21079;-82
2024/04/10 13:27:20;;;;;;;7.25;1.35;;;;;;;;;;5414514;26;20349;-82
2024/04/10 13:29:49;;;;;;;8.07;1.30;;;;;;;;;;5416477;26;20223;-81
2024/04/10 13:32:18;;;;;;;7.43;1.30;;;;;;;;;;5415049;26;20284;-82
2024/04/10 13:34:47;;;;;;;5.35;1.40;;;;;;;;;;5415036;26;20623;-82
2024/04/10 13:38:53;;;;;;;5.53;1.23;;;;;;;;;;5580112;25;21461;-82
2024/04/10 13:41:19;;;;;;;6.00;1.33;;;;;;;;;;5571554;25;20331;-81
2024/04/10 13:43:49;;;;;;;6.97;1.20;;;;;;;;;;5542937;25;20678;-81
2024/04/10 13:46:15;;;;;;;5.40;1.10;;;;;;;;;;5579010;25;20245;-81
2024/04/10 13:48:46;;;;;;;6.18;1.20;;;;;;;;;;5581044;25;20220;-81
2024/04/10 13:51:17;;;;;;;5.18;1.40;;;;;;;;;;5579154;25;20701;-81
2024/04/10 13:53:46;;;;;;;4.78;1.20;;;;;;;;;;5573517;25;20249;-81
2024/04/10 13:56:15;;;;;;;5.03;1.63;;;;;;;;;;5553369;25;20286;-81
2024/04/10 13:58:44;;;;;;;5.53;1.35;;;;;;;;;;5565278;25;20275;-80
2024/04/10 14:01:11;;;;;;;7.63;1.75;;;;;;;;;;5576817;25;20308;-82
2024/04/10 14:03:40;;;;;;;6.75;1.85;;;;;;;;;;5572297;25;20286;-80
2024/04/10 14:06:07;;;;;;;5.70;1.50;;;;;;;;;;5562561;25;20240;-82
2024/04/10 14:08:37;;;;;;;4.78;1.10;;;;;;;;;;5579743;25;20236;-82
2024/04/10 14:11:04;;;;;;;11.48;1.98;;;;;;;;;;5579342;25;20267;-82
2024/04/10 14:13:37;;;;;;;9.18;1.48;;;;;;;;;;5576535;25;20237;-81
2024/04/10 14:16:05;;;;;;;7.07;1.65;;;;;;;;;;5576919;25;20279;-82
2024/04/10 14:18:34;;;;;;;7.32;1.60;;;;;;;;;;5574778;25;20331;-83
2024/04/10 14:21:00;;;;;;;6.03;1.48;;;;;;;;;;5580536;25;20271;-82
2024/04/10 14:23:29;;;;;;;5.05;1.23;;;;;;;;;;5578644;25;20287;-80
2024/04/10 14:25:57;;;;;;;8.43;1.67;;;;;;;;;;5577688;25;20224;-82
2024/04/10 14:28:28;;;;;;;6.25;1.98;;;;;;;;;;5580259;25;20232;-82
2024/04/10 14:30:59;;;;;;;10.35;2.05;;;;;;;;;;5580740;25;20682;-83
2024/04/10 14:33:28;;;;;;;8.73;1.90;;;;;;;;;;5580312;25;20702;-81
2024/04/10 14:35:54;;;;;;;4.32;1.80;;;;;;;;;;5572301;25;20288;-81
2024/04/10 14:38:24;;;;;;;5.70;1.67;;;;;;;;;;5579354;25;20275;-83
2024/04/10 14:40:50;;;;;;;5.97;1.48;;;;;;;;;;5578484;25;20288;-83
2024/04/10 14:43:19;;;;;;;9.02;1.70;;;;;;;;;;5575344;25;20225;-82
2024/04/10 14:45:46;;;;;;;6.45;1.40;;;;;;;;;;5170595;25;10000070;-83
2024/04/10 14:48:17;;;;;;;6.70;1.40;;;;;;;;;;5533252;25;20260;-82
2024/04/10 14:50:52;;;;;;;5.30;1.45;;;;;;;;;;5522671;25;20217;-83
2024/04/10 14:53:21;;;;;;;6.68;1.40;;;;;;;;;;5558929;25;20263;-82
2024/04/10 14:55:48;;;;;;;7.82;1.30;;;;;;;;;;5559056;25;20834;-82
2024/04/10 14:58:16;;;;;;;7.47;1.60;;;;;;;;;;5559085;25;20289;-83
2024/04/10 15:00:43;;;;;;;4.70;1.10;;;;;;;;;;5559011;25;20264;-83
2024/04/10 15:03:12;;;;;;;7.57;1.35;;;;;;;;;;5556949;25;20233;-81
2024/04/10 15:05:40;;;;;;;7.95;1.65;;;;;;;;;;5559039;25;20225;-81
2024/04/10 15:08:10;;;;;;;6.13;1.55;;;;;;;;;;5556788;25;20296;-82
2024/04/10 15:10:40;;;;;;;7.18;1.38;;;;;;;;;;5558120;25;20237;-82
2024/04/10 15:13:09;;;;;;;7.47;1.50;;;;;;;;;;5554571;25;20263;-82
2024/04/10 15:15:35;;;;;;;4.88;1.35;;;;;;;;;;5556945;25;20288;-83
2024/04/10 15:18:05;;;;;;;7.40;1.50;;;;;;;;;;5557915;25;20233;-82
2024/04/10 15:20:31;;;;;;;6.63;1.77;;;;;;;;;;5557682;25;20276;-83